Time;durP1;ratioP1;P1;durP2;ratioP2;P2;SDS_P1;SDS_P2;PMS_P1;PMS_P2;Temp;Humidity;BMP_temperature;BMP_pressure;BME280_temperature;BME280_humidity;BME280_pressure;Samples;Min_cycle;Max_cycle;Signal;HPM_P1;HPM_P2
2021/05/03 00:01:07;;;;;;;;;;;18.60;50.10;;;;;;4858224;29;19931;-91
2021/05/03 00:03:36;;;;;;;;;;;18.60;50.10;;;;;;4860254;29;19938;-90
2021/05/03 00:06:02;;;;;;;;;;;18.70;50.10;;;;;;4851058;29;19931;-91
2021/05/03 00:08:28;;;;;;;;;;;18.60;50.10;;;;;;4835223;29;20292;-91
2021/05/03 00:10:55;;;;;;;;;;;18.60;50.10;;;;;;4844885;29;19924;-93
2021/05/03 00:13:21;;;;;;;;;;;18.60;50.10;;;;;;4876808;29;20011;-94
2021/05/03 00:15:53;;;;;;;;;;;18.60;50.10;;;;;;4869265;29;19924;-93
2021/05/03 00:18:19;;;;;;;;;;;18.50;50.00;;;;;;4861651;29;20361;-94
2021/05/03 00:20:46;;;;;;;;;;;18.50;50.10;;;;;;4861254;29;19960;-93
2021/05/03 00:23:13;;;;;;;;;;;18.50;50.10;;;;;;4863681;29;20328;-92
2021/05/03 00:25:39;;;;;;;;;;;18.50;50.00;;;;;;4851004;29;20308;-91
2021/05/03 00:28:09;;;;;;;;;;;18.50;50.10;;;;;;4838099;29;20007;-91
2021/05/03 00:30:35;;;;;;;;;;;18.50;50.10;;;;;;4861054;29;19924;-93
2021/05/03 00:33:05;;;;;;;;;;;18.50;50.10;;;;;;4864323;29;20011;-93
2021/05/03 00:35:32;;;;;;;;;;;18.50;50.10;;;;;;4864133;29;19924;-93
2021/05/03 00:38:00;;;;;;;;;;;18.50;50.10;;;;;;4860928;29;19979;-93
2021/05/03 00:40:26;;;;;;;;;;;18.40;50.10;;;;;;4860767;29;19929;-93
2021/05/03 00:42:53;;;;;;;;;;;18.50;50.10;;;;;;4862895;29;19931;-93
2021/05/03 00:45:21;;;;;;;;;;;18.50;50.10;;;;;;4852772;29;19977;-94
2021/05/03 00:47:47;;;;;;;;;;;18.40;50.10;;;;;;4848654;29;20018;-93
2021/05/03 00:50:15;;;;;;;;;;;18.40;50.20;;;;;;4862303;29;19930;-93
2021/05/03 00:52:42;;;;;;;;;;;18.40;50.10;;;;;;4854742;29;19924;-93
2021/05/03 00:55:09;;;;;;;;;;;18.40;50.10;;;;;;4865880;29;20167;-93
2021/05/03 00:57:36;;;;;;;;;;;18.40;50.20;;;;;;4862537;29;19935;-92
2021/05/03 01:00:07;;;;;;;;;;;18.40;50.10;;;;;;4860779;29;19942;-92
2021/05/03 01:02:33;;;;;;;;;;;18.30;50.00;;;;;;4859275;29;19923;-91
2021/05/03 01:05:00;;;;;;;;;;;18.40;50.70;;;;;;4858355;29;20109;-92
2021/05/03 01:07:26;;;;;;;;;;;18.30;50.00;;;;;;4860483;29;19924;-91
2021/05/03 01:09:52;;;;;;;;;;;18.30;50.10;;;;;;4856296;29;19931;-92
2021/05/03 01:12:18;;;;;;;;;;;18.30;50.00;;;;;;4875823;29;19931;-90
2021/05/03 01:14:45;;;;;;;;;;;18.30;50.00;;;;;;4858252;29;20245;-89
2021/05/03 01:17:11;;;;;;;;;;;18.30;50.00;;;;;;4868173;29;19932;-89
2021/05/03 01:19:38;;;;;;;;;;;18.20;49.90;;;;;;4857066;29;19930;-90
2021/05/03 01:22:06;;;;;;;;;;;18.30;50.00;;;;;;4863358;29;19924;-90
2021/05/03 01:24:32;;;;;;;;;;;18.30;49.90;;;;;;4873523;29;19927;-89
2021/05/03 01:26:58;;;;;;;;;;;18.20;49.90;;;;;;4859720;29;19931;-89
2021/05/03 01:29:25;;;;;;;;;;;18.30;49.90;;;;;;4855112;29;20498;-89
2021/05/03 01:31:52;;;;;;;;;;;18.20;49.80;;;;;;4855872;29;19934;-89
2021/05/03 01:34:19;;;;;;;;;;;18.20;49.70;;;;;;4847958;29;19947;-88
2021/05/03 01:36:46;;;;;;;;;;;18.20;49.70;;;;;;4860867;29;19924;-89
2021/05/03 01:39:13;;;;;;;;;;;18.20;49.70;;;;;;4851378;29;19931;-91
2021/05/03 01:41:40;;;;;;;;;;;18.20;49.70;;;;;;4850292;29;19978;-90
2021/05/03 01:44:08;;;;;;;;;;;18.20;49.90;;;;;;4857278;29;19931;-91
2021/05/03 01:46:35;;;;;;;;;;;18.20;49.70;;;;;;4855129;29;19935;-92
2021/05/03 01:49:03;;;;;;;;;;;18.20;49.70;;;;;;4859229;29;19935;-91
2021/05/03 01:51:29;;;;;;;;;;;18.20;49.70;;;;;;4863131;29;19923;-91
2021/05/03 01:53:56;;;;;;;;;;;18.20;49.70;;;;;;4867096;29;19931;-89
2021/05/03 01:56:25;;;;;;;;;;;18.20;49.70;;;;;;4874691;29;19931;-89
2021/05/03 01:58:52;;;;;;;;;;;18.10;49.70;;;;;;4856917;29;19924;-90
2021/05/03 02:01:19;;;;;;;;;;;18.10;49.70;;;;;;4858751;29;20455;-89
2021/05/03 02:03:46;;;;;;;;;;;18.10;49.70;;;;;;4858919;29;21238;-90
2021/05/03 02:06:13;;;;;;;;;;;18.10;49.60;;;;;;4862356;29;19923;-89
2021/05/03 02:08:39;;;;;;;;;;;18.10;49.60;;;;;;4843473;29;19943;-89
2021/05/03 02:11:05;;;;;;;;;;;18.10;49.50;;;;;;4877211;29;19924;-89
2021/05/03 02:13:33;;;;;;;;;;;18.10;49.60;;;;;;4842479;29;19924;-89
2021/05/03 02:15:59;;;;;;;;;;;18.10;49.60;;;;;;4868928;29;19924;-89
2021/05/03 02:18:25;;;;;;;;;;;18.10;49.50;;;;;;4873296;29;20308;-88
2021/05/03 02:20:52;;;;;;;;;;;18.10;49.60;;;;;;4875140;29;19924;-88
2021/05/03 02:23:18;;;;;;;;;;;18.10;49.60;;;;;;4853962;29;19924;-90
2021/05/03 02:25:44;;;;;;;;;;;18.00;49.50;;;;;;4867206;29;19927;-88
2021/05/03 02:28:11;;;;;;;;;;;18.00;49.60;;;;;;4885729;29;19931;-88
2021/05/03 02:30:37;;;;;;;;;;;18.00;49.50;;;;;;4875176;29;19923;-92
2021/05/03 02:33:04;;;;;;;;;;;18.00;49.50;;;;;;4867907;29;19931;-94
2021/05/03 02:35:33;;;;;;;;;;;18.00;49.50;;;;;;4862397;29;19924;-93
2021/05/03 02:38:02;;;;;;;;;;;18.00;49.50;;;;;;4854898;29;19963;-93
2021/05/03 02:40:29;;;;;;;;;;;18.00;49.50;;;;;;4884472;29;19924;-93
2021/05/03 02:43:00;;;;;;;;;;;18.00;49.50;;;;;;4866556;29;19931;-89
2021/05/03 02:45:27;;;;;;;;;;;18.00;49.40;;;;;;4867361;29;19935;-88
2021/05/03 02:47:54;;;;;;;;;;;18.00;49.40;;;;;;4856099;29;19955;-88
2021/05/03 02:50:22;;;;;;;;;;;18.00;49.50;;;;;;4888211;29;19923;-88
2021/05/03 02:52:48;;;;;;;;;;;18.00;49.50;;;;;;4875420;29;19924;-88
2021/05/03 02:55:15;;;;;;;;;;;17.90;49.40;;;;;;4864060;29;20863;-89
2021/05/03 02:57:42;;;;;;;;;;;17.90;49.50;;;;;;4858088;29;19954;-89
2021/05/03 03:00:10;;;;;;;;;;;18.00;49.50;;;;;;4859925;29;19930;-89
2021/05/03 03:02:36;;;;;;;;;;;18.00;49.50;;;;;;4874779;29;19930;-89
2021/05/03 03:05:03;;;;;;;;;;;17.90;49.40;;;;;;4870576;29;19924;-89
2021/05/03 03:07:30;;;;;;;;;;;17.90;49.40;;;;;;4877316;29;19947;-89
2021/05/03 03:09:56;;;;;;;;;;;17.90;49.40;;;;;;4874947;29;19924;-89
2021/05/03 03:12:22;;;;;;;;;;;17.90;49.40;;;;;;4864950;29;19931;-89
2021/05/03 03:14:48;;;;;;;;;;;17.90;49.40;;;;;;4861646;29;19923;-88
2021/05/03 03:17:14;;;;;;;;;;;17.90;49.40;;;;;;4873990;29;21229;-89
2021/05/03 03:19:42;;;;;;;;;;;17.90;49.40;;;;;;4860300;29;19979;-89
2021/05/03 03:22:09;;;;;;;;;;;17.80;49.30;;;;;;4846735;29;20004;-89
2021/05/03 03:24:35;;;;;;;;;;;17.90;49.40;;;;;;4858921;29;19960;-90
2021/05/03 03:27:06;;;;;;;;;;;17.80;49.30;;;;;;4859420;29;20002;-91
2021/05/03 03:29:33;;;;;;;;;;;17.90;49.40;;;;;;4877925;29;19931;-91
2021/05/03 03:31:59;;;;;;;;;;;17.80;49.30;;;;;;4859399;29;19935;-89
2021/05/03 03:34:28;;;;;;;;;;;17.80;49.30;;;;;;4873572;29;19931;-89
2021/05/03 03:37:06;;;;;;;;;;;17.80;49.30;;;;;;4860429;29;20296;-88
2021/05/03 03:39:33;;;;;;;;;;;17.80;49.30;;;;;;4856693;29;19975;-87
2021/05/03 03:42:00;;;;;;;;;;;17.80;49.30;;;;;;4866482;29;20426;-88
2021/05/03 03:44:30;;;;;;;;;;;17.80;49.30;;;;;;4850557;29;19934;-89
2021/05/03 03:46:57;;;;;;;;;;;17.80;49.20;;;;;;4864514;29;19924;-89
2021/05/03 03:49:23;;;;;;;;;;;17.80;49.20;;;;;;4873363;29;19927;-87
2021/05/03 03:51:49;;;;;;;;;;;17.80;49.20;;;;;;4874571;29;19923;-86
2021/05/03 03:54:20;;;;;;;;;;;17.80;49.20;;;;;;4856771;29;19923;-88
2021/05/03 03:56:55;;;;;;;;;;;17.80;49.20;;;;;;4850617;29;19924;-89
2021/05/03 03:59:22;;;;;;;;;;;17.80;49.20;;;;;;4863430;29;19923;-90
2021/05/03 04:01:49;;;;;;;;;;;17.80;49.20;;;;;;4858625;29;19927;-89
2021/05/03 04:04:23;;;;;;;;;;;17.80;49.20;;;;;;4868242;29;21140;-90
2021/05/03 04:06:55;;;;;;;;;;;17.70;49.10;;;;;;4848676;29;19934;-88
2021/05/03 04:12:45;;;;;;;;;;;17.70;49.10;;;;;;4854882;29;19928;-91
2021/05/03 04:25:38;;;;;;;;;;;17.70;49.00;;;;;;4877329;29;20289;-91
2021/05/03 04:28:05;;;;;;;;;;;17.70;49.00;;;;;;4865194;29;19924;-92
2021/05/03 04:30:31;;;;;;;;;;;17.70;48.90;;;;;;4867926;29;20301;-91
2021/05/03 04:33:01;;;;;;;;;;;17.70;48.90;;;;;;4861777;29;19947;-91
2021/05/03 04:35:28;;;;;;;;;;;17.60;48.90;;;;;;4860604;29;19975;-90
2021/05/03 04:37:54;;;;;;;;;;;17.60;48.90;;;;;;4857634;29;19924;-90
2021/05/03 04:40:21;;;;;;;;;;;17.70;48.90;;;;;;4851044;29;19927;-91
2021/05/03 04:42:49;;;;;;;;;;;17.60;48.80;;;;;;4859153;29;19923;-90
2021/05/03 04:45:16;;;;;;;;;;;17.70;48.80;;;;;;4861693;29;19923;-91
2021/05/03 04:47:42;;;;;;;;;;;17.70;48.70;;;;;;4858426;29;19991;-91
2021/05/03 04:50:09;;;;;;;;;;;17.70;48.80;;;;;;4860335;29;19927;-91
2021/05/03 04:52:36;;;;;;;;;;;17.60;48.70;;;;;;4859620;29;19923;-90
2021/05/03 04:55:03;;;;;;;;;;;17.60;48.70;;;;;;4862065;29;19927;-90
2021/05/03 04:57:29;;;;;;;;;;;17.60;48.60;;;;;;4841866;29;19924;-90
2021/05/03 04:59:57;;;;;;;;;;;17.70;48.70;;;;;;4857064;29;20044;-90
2021/05/03 05:02:23;;;;;;;;;;;17.60;48.70;;;;;;4846752;29;19930;-90
2021/05/03 05:04:52;;;;;;;;;;;17.60;48.60;;;;;;4855051;29;19924;-89
2021/05/03 05:07:20;;;;;;;;;;;17.70;48.70;;;;;;4861535;29;19928;-90
2021/05/03 05:09:46;;;;;;;;;;;17.70;48.70;;;;;;4857868;29;20586;-90
2021/05/03 05:12:16;;;;;;;;;;;17.60;48.60;;;;;;4872902;29;21762;-89
2021/05/03 05:14:42;;;;;;;;;;;17.60;48.60;;;;;;4843546;29;20022;-89
2021/05/03 05:17:09;;;;;;;;;;;17.60;48.50;;;;;;4855334;29;19932;-89
2021/05/03 05:19:37;;;;;;;;;;;17.60;48.50;;;;;;4866099;29;19931;-88
2021/05/03 05:22:06;;;;;;;;;;;17.60;49.10;;;;;;4829919;29;19923;-89
2021/05/03 05:24:33;;;;;;;;;;;17.60;48.50;;;;;;4883992;29;19923;-89
2021/05/03 05:26:59;;;;;;;;;;;17.70;48.60;;;;;;4860745;29;19924;-90
2021/05/03 05:29:25;;;;;;;;;;;17.60;48.50;;;;;;4876193;29;20278;-94
2021/05/03 05:32:02;;;;;;;;;;;17.60;48.40;;;;;;4850507;29;19924;-94
2021/05/03 05:34:34;;;;;;;;;;;17.60;48.30;;;;;;4874700;29;19938;-95
2021/05/03 05:37:17;;;;;;;;;;;17.70;48.50;;;;;;4829453;29;19912;-94
2021/05/03 05:42:13;;;;;;;;;;;17.60;48.50;;;;;;4869965;29;19956;-87
2021/05/03 05:44:39;;;;;;;;;;;17.60;48.50;;;;;;4873395;29;19923;-93
2021/05/03 05:47:38;;;;;;;;;;;17.70;48.50;;;;;;4854934;29;20408;-93
2021/05/03 05:50:32;;;;;;;;;;;17.70;48.50;;;;;;4820767;29;19931;-92
2021/05/03 05:53:07;;;;;;;;;;;17.60;48.40;;;;;;4838302;29;19927;-90
2021/05/03 05:55:34;;;;;;;;;;;17.60;48.30;;;;;;4858302;29;19928;-90
2021/05/03 05:58:00;;;;;;;;;;;17.70;48.40;;;;;;4848721;29;19927;-89
2021/05/03 06:00:27;;;;;;;;;;;17.70;48.30;;;;;;4846483;29;19932;-89
2021/05/03 06:02:53;;;;;;;;;;;17.60;48.20;;;;;;4856577;29;19931;-87
2021/05/03 06:05:27;;;;;;;;;;;17.70;48.30;;;;;;4862370;29;19972;-84
2021/05/03 06:07:53;;;;;;;;;;;17.70;48.30;;;;;;4863470;29;19924;-89
2021/05/03 06:10:20;;;;;;;;;;;17.70;48.30;;;;;;4875555;29;20293;-88
2021/05/03 06:12:46;;;;;;;;;;;17.70;48.30;;;;;;4874856;29;19927;-89
2021/05/03 06:15:12;;;;;;;;;;;17.60;48.30;;;;;;4856278;29;19924;-92
2021/05/03 06:17:38;;;;;;;;;;;17.70;48.20;;;;;;4859794;29;19923;-92
2021/05/03 06:20:05;;;;;;;;;;;17.60;48.10;;;;;;4867417;29;19924;-92
2021/05/03 06:22:34;;;;;;;;;;;17.70;48.20;;;;;;4844790;29;19939;-85
2021/05/03 06:25:00;;;;;;;;;;;17.70;48.10;;;;;;4860356;29;20186;-88
2021/05/03 06:27:27;;;;;;;;;;;17.60;48.10;;;;;;4862757;29;19931;-91
2021/05/03 06:29:54;;;;;;;;;;;17.70;48.10;;;;;;4859330;29;19924;-95
2021/05/03 06:32:23;;;;;;;;;;;17.70;48.20;;;;;;4851610;29;19926;-94
2021/05/03 06:34:51;;;;;;;;;;;17.70;48.20;;;;;;4858532;29;19934;-93
2021/05/03 06:37:18;;;;;;;;;;;17.70;48.20;;;;;;4845274;29;19959;-92
2021/05/03 06:39:44;;;;;;;;;;;17.70;48.20;;;;;;4862247;29;19923;-92
2021/05/03 06:42:10;;;;;;;;;;;17.70;48.20;;;;;;4879986;29;19989;-91
2021/05/03 06:44:37;;;;;;;;;;;17.70;48.30;;;;;;4864976;29;19923;-93
2021/05/03 06:47:13;;;;;;;;;;;17.70;48.20;;;;;;4878935;29;20007;-95
2021/05/03 06:49:59;;;;;;;;;;;17.70;48.10;;;;;;4853746;29;19924;-94
2021/05/03 06:52:33;;;;;;;;;;;17.70;48.10;;;;;;4868680;29;19911;-96
2021/05/03 06:55:15;;;;;;;;;;;17.70;48.10;;;;;;4863718;29;19935;-95
2021/05/03 06:57:57;;;;;;;;;;;17.70;48.10;;;;;;4846966;29;19947;-96
2021/05/03 07:00:49;;;;;;;;;;;17.70;48.00;;;;;;4842369;29;20188;-96
2021/05/03 07:03:27;;;;;;;;;;;17.70;48.00;;;;;;4829603;29;20336;-95
2021/05/03 07:05:54;;;;;;;;;;;17.70;47.90;;;;;;4870434;29;19924;-88
2021/05/03 07:08:24;;;;;;;;;;;17.80;48.00;;;;;;4876218;29;19930;-88
2021/05/03 07:10:52;;;;;;;;;;;17.70;47.90;;;;;;4857222;29;19946;-89
2021/05/03 07:13:20;;;;;;;;;;;17.70;47.90;;;;;;4874723;29;19924;-94
2021/05/03 07:15:49;;;;;;;;;;;17.70;47.90;;;;;;4865166;29;19924;-86
2021/05/03 07:18:15;;;;;;;;;;;17.80;47.90;;;;;;4877310;29;19966;-90
2021/05/03 07:22:32;;;;;;;;;;;17.80;48.10;;;;;;5051147;27;1470925;-81
2021/05/03 07:25:02;;;;;;;;;;;17.80;49.70;;;;;;5089229;27;19944;-81
2021/05/03 07:27:29;;;;;;;;;;;17.90;50.30;;;;;;5075430;28;20320;-89
2021/05/03 07:40:49;;;;;;;;;;;18.00;49.70;;;;;;5022136;28;20267;-59
2021/05/03 07:44:31;;;;;;;;;;;18.30;49.20;;;;;;5088183;27;1491739;-72
2021/05/03 07:46:57;;;;;;;;;;;20.10;47.60;;;;;;5119668;27;20359;-72
2021/05/03 07:49:23;;;;;;;;;;;19.30;47.10;;;;;;5118972;27;19927;-72
2021/05/03 07:51:51;;;;;;;;;;;19.40;46.90;;;;;;5110425;27;19927;-72
2021/05/03 07:54:17;;;;;;;;;;;19.60;46.80;;;;;;5094498;28;20590;-72
2021/05/03 07:56:43;;;;;;;;;;;19.70;46.70;;;;;;5099115;27;20354;-73
2021/05/03 07:59:09;;;;;;;;;;;19.80;46.70;;;;;;5087083;28;19925;-73
2021/05/03 08:01:36;;;;;;;;;;;19.90;46.60;;;;;;5078516;28;20370;-73
2021/05/03 08:04:03;;;;;;;;;;;20.00;46.80;;;;;;5082983;28;20632;-77
2021/05/03 08:06:30;;;;;;;;;;;19.90;46.80;;;;;;5081005;28;19961;-75
2021/05/03 08:08:58;;;;;;;;;;;20.00;47.00;;;;;;5075742;28;20645;-76
2021/05/03 08:11:24;;;;;;;;;;;20.10;46.90;;;;;;5090396;28;19920;-77
2021/05/03 08:13:50;;;;;;;;;;;20.10;46.70;;;;;;5093040;28;19939;-76
2021/05/03 08:16:17;;;;;;;;;;;20.10;46.50;;;;;;5088130;28;19935;-75
2021/05/03 08:18:43;;;;;;;;;;;20.10;46.50;;;;;;5095075;28;19957;-76
2021/05/03 08:21:13;;;;;;;;;;;20.10;46.60;;;;;;5082933;28;19924;-75
2021/05/03 08:23:40;;;;;;;;;;;20.10;46.60;;;;;;5090673;28;19921;-80
2021/05/03 08:26:07;;;;;;;;;;;20.10;46.50;;;;;;5082797;28;19924;-76
2021/05/03 08:28:34;;;;;;;;;;;20.20;46.40;;;;;;5086645;28;19942;-75
2021/05/03 08:31:00;;;;;;;;;;;20.20;46.40;;;;;;5087538;28;19920;-75
2021/05/03 08:33:27;;;;;;;;;;;20.20;46.30;;;;;;5127708;27;19920;-75
2021/05/03 08:35:56;;;;;;;;;;;20.30;46.40;;;;;;5082353;28;20013;-75
2021/05/03 08:38:23;;;;;;;;;;;20.30;46.30;;;;;;5077848;28;20272;-74
2021/05/03 08:40:50;;;;;;;;;;;20.40;46.10;;;;;;5077837;28;19920;-76
2021/05/03 08:43:16;;;;;;;;;;;20.40;46.00;;;;;;5079743;27;20793;-73
2021/05/03 08:45:43;;;;;;;;;;;20.50;46.20;;;;;;5075481;27;19924;-73
2021/05/03 08:53:44;;;;;;;;;;;20.30;46.00;;;;;;5050836;28;21040;-73
2021/05/03 08:56:10;;;;;;;;;;;20.30;46.00;;;;;;5068555;28;19932;-74
2021/05/03 08:58:37;;;;;;;;;;;20.40;45.80;;;;;;5065275;28;19924;-74
2021/05/03 09:01:03;;;;;;;;;;;20.40;45.70;;;;;;5087248;28;19928;-74
2021/05/03 09:03:29;;;;;;;;;;;20.50;45.60;;;;;;5085724;28;20302;-74
2021/05/03 09:06:01;;;;;;;;;;;20.40;45.50;;;;;;5066737;28;19935;-74
2021/05/03 09:08:28;;;;;;;;;;;20.50;45.40;;;;;;5079762;28;19935;-74
2021/05/03 09:10:55;;;;;;;;;;;20.50;45.20;;;;;;5072805;28;20354;-74
2021/05/03 09:13:29;;;;;;;;;;;20.50;45.10;;;;;;5068227;27;19927;-74
2021/05/03 09:16:14;;;;;;;;;;;20.60;45.00;;;;;;5067130;28;19920;-73
2021/05/03 09:18:41;;;;;;;;;;;20.60;44.90;;;;;;5096117;27;19935;-73
2021/05/03 09:21:29;;;;;;;;;;;20.60;44.80;;;;;;5068428;28;19932;-73
2021/05/03 09:23:58;;;;;;;;;;;20.60;44.80;;;;;;5053612;28;20115;-72
2021/05/03 09:26:35;;;;;;;;;;;20.60;44.80;;;;;;5062117;28;19920;-73
2021/05/03 09:29:21;;;;;;;;;;;20.60;44.80;;;;;;5067474;28;19920;-73
2021/05/03 09:31:56;;;;;;;;;;;20.60;44.60;;;;;;5069577;28;21461;-75
2021/05/03 09:34:27;;;;;;;;;;;20.60;44.50;;;;;;5085831;28;21139;-76
2021/05/03 09:37:13;;;;;;;;;;;20.70;44.60;;;;;;5085513;27;19934;-77
2021/05/03 09:39:39;;;;;;;;;;;20.70;44.40;;;;;;5072428;28;20821;-74
2021/05/03 09:42:05;;;;;;;;;;;20.70;44.40;;;;;;5081847;28;19924;-74
2021/05/03 09:44:32;;;;;;;;;;;20.80;44.10;;;;;;5076200;28;19936;-75
2021/05/03 09:46:58;;;;;;;;;;;20.90;44.00;;;;;;5082507;28;19920;-73
2021/05/03 09:49:25;;;;;;;;;;;20.90;44.20;;;;;;5078891;27;19924;-73
2021/05/03 09:51:56;;;;;;;;;;;20.90;44.00;;;;;;5075701;28;19981;-73
2021/05/03 09:54:29;;;;;;;;;;;21.00;44.00;;;;;;5078724;28;19946;-72
2021/05/03 09:57:10;;;;;;;;;;;21.10;44.00;;;;;;5084741;28;19935;-74
2021/05/03 09:59:39;;;;;;;;;;;21.10;43.70;;;;;;5074849;28;19920;-74
2021/05/03 10:02:25;;;;;;;;;;;21.10;43.60;;;;;;5083413;28;20316;-73
2021/05/03 10:04:53;;;;;;;;;;;21.20;43.50;;;;;;5078561;28;20525;-73
2021/05/03 10:07:21;;;;;;;;;;;21.20;43.60;;;;;;5078275;28;19932;-74
2021/05/03 10:09:51;;;;;;;;;;;21.20;43.70;;;;;;5075399;28;20356;-74
2021/05/03 10:12:17;;;;;;;;;;;21.10;43.80;;;;;;5079338;28;20435;-75
2021/05/03 10:14:45;;;;;;;;;;;21.20;44.20;;;;;;5078824;28;20069;-73
2021/05/03 10:17:13;;;;;;;;;;;21.10;43.60;;;;;;5081555;28;19920;-73
2021/05/03 10:19:40;;;;;;;;;;;21.10;43.70;;;;;;5075968;28;20325;-73
2021/05/03 10:22:07;;;;;;;;;;;21.10;43.50;;;;;;5085082;28;19923;-74
2021/05/03 10:24:34;;;;;;;;;;;21.10;43.40;;;;;;5078645;28;20071;-73
2021/05/03 10:27:11;;;;;;;;;;;21.10;43.50;;;;;;5078181;28;19932;-74
2021/05/03 10:29:43;;;;;;;;;;;21.10;43.40;;;;;;5073483;28;19920;-73
2021/05/03 10:32:22;;;;;;;;;;;21.20;43.40;;;;;;5082813;28;19930;-74
2021/05/03 10:34:50;;;;;;;;;;;21.20;43.30;;;;;;5077842;28;20348;-73
2021/05/03 10:37:36;;;;;;;;;;;21.30;43.00;;;;;;5079702;27;21752;-73
2021/05/03 10:40:07;;;;;;;;;;;21.40;42.80;;;;;;5065695;28;20800;-73
2021/05/03 10:42:34;;;;;;;;;;;21.50;42.80;;;;;;5074040;28;19923;-73
2021/05/03 10:45:16;;;;;;;;;;;21.50;42.60;;;;;;5073944;28;20243;-74
2021/05/03 10:47:48;;;;;;;;;;;21.50;42.70;;;;;;5074193;28;19924;-73
2021/05/03 10:50:24;;;;;;;;;;;21.60;42.40;;;;;;5080804;28;19977;-73
2021/05/03 10:52:51;;;;;;;;;;;21.60;42.40;;;;;;5074445;28;21221;-74
2021/05/03 10:55:17;;;;;;;;;;;21.60;42.40;;;;;;5074759;28;19965;-73
2021/05/03 10:57:56;;;;;;;;;;;21.60;41.90;;;;;;5062626;28;19928;-79
2021/05/03 11:00:30;;;;;;;;;;;21.70;41.80;;;;;;5079352;28;23288;-72
2021/05/03 11:02:56;;;;;;;;;;;21.80;41.90;;;;;;5076622;28;19981;-72
2021/05/03 11:05:24;;;;;;;;;;;21.70;41.90;;;;;;5068763;28;20003;-72
2021/05/03 11:08:03;;;;;;;;;;;21.70;41.80;;;;;;5060933;28;19921;-74
2021/05/03 11:10:48;;;;;;;;;;;21.80;41.80;;;;;;5061819;28;19927;-73
2021/05/03 11:13:33;;;;;;;;;;;21.90;41.60;;;;;;5063044;27;19920;-72
2021/05/03 11:16:19;;;;;;;;;;;22.00;41.50;;;;;;5057772;28;21426;-74
2021/05/03 11:18:46;;;;;;;;;;;22.00;41.80;;;;;;5072971;28;19977;-74
2021/05/03 11:21:16;;;;;;;;;;;22.10;40.90;;;;;;5099406;27;19950;-72
2021/05/03 11:23:42;;;;;;;;;;;22.20;41.40;;;;;;5080119;28;20320;-72
2021/05/03 11:26:26;;;;;;;;;;;22.30;41.00;;;;;;5083730;28;19928;-72
2021/05/03 11:29:03;;;;;;;;;;;22.30;40.60;;;;;;5079809;28;21224;-73
2021/05/03 11:31:31;;;;;;;;;;;22.20;40.00;;;;;;5071058;28;19965;-74
2021/05/03 11:34:07;;;;;;;;;;;22.30;40.70;;;;;;5066948;28;19920;-73
2021/05/03 11:36:38;;;;;;;;;;;22.40;41.10;;;;;;5057925;28;20037;-73
2021/05/03 11:39:13;;;;;;;;;;;22.60;40.90;;;;;;5065104;28;19928;-74
2021/05/03 11:46:47;;;;;;;;;;;23.10;40.30;;;;;;5070166;28;20758;-74
2021/05/03 11:49:16;;;;;;;;;;;23.10;41.20;;;;;;5080026;28;19932;-74
2021/05/03 11:51:57;;;;;;;;;;;23.10;40.90;;;;;;5086041;28;19924;-75
2021/05/03 11:54:42;;;;;;;;;;;22.40;37.10;;;;;;5073237;28;19926;-76
2021/05/03 11:57:41;;;;;;;;;;;21.40;35.40;;;;;;5046358;28;20428;-75
2021/05/03 12:00:09;;;;;;;;;;;20.90;34.90;;;;;;5093645;28;19928;-75
2021/05/03 12:02:35;;;;;;;;;;;20.90;35.60;;;;;;5083087;28;19924;-75
2021/05/03 12:05:16;;;;;;;;;;;20.80;35.30;;;;;;5064039;28;20320;-75
2021/05/03 12:07:43;;;;;;;;;;;20.90;34.80;;;;;;5083739;28;20283;-74
2021/05/03 12:10:11;;;;;;;;;;;20.70;34.70;;;;;;5080992;28;19919;-74
2021/05/03 12:12:40;;;;;;;;;;;20.30;33.50;;;;;;5082535;28;19920;-75
2021/05/03 12:15:08;;;;;;;;;;;20.60;33.80;;;;;;5055335;28;20183;-75
2021/05/03 12:17:35;;;;;;;;;;;20.40;32.50;;;;;;5085587;28;19927;-75
2021/05/03 12:20:06;;;;;;;;;;;20.40;32.30;;;;;;5083552;28;19920;-75
2021/05/03 12:22:35;;;;;;;;;;;20.40;32.60;;;;;;5086525;28;19928;-75
2021/05/03 12:25:05;;;;;;;;;;;20.40;32.40;;;;;;5063018;28;19920;-76
2021/05/03 12:27:32;;;;;;;;;;;20.10;32.70;;;;;;5081349;28;20371;-75
2021/05/03 12:29:59;;;;;;;;;;;19.90;33.30;;;;;;5086394;28;19954;-75
2021/05/03 12:32:31;;;;;;;;;;;20.00;33.90;;;;;;5084908;28;19927;-75
2021/05/03 12:34:57;;;;;;;;;;;20.20;34.90;;;;;;5080634;28;19931;-75
2021/05/03 12:37:29;;;;;;;;;;;20.20;33.90;;;;;;5085763;28;19928;-74
2021/05/03 12:40:00;;;;;;;;;;;20.10;34.90;;;;;;5084803;28;19920;-75
2021/05/03 12:42:30;;;;;;;;;;;20.10;33.70;;;;;;5089554;28;19954;-75
2021/05/03 12:44:58;;;;;;;;;;;20.10;33.80;;;;;;5078168;28;19927;-75
2021/05/03 13:01:03;;;;;;;;;;;20.40;35.00;;;;;;5088726;28;22020;-73
2021/05/03 13:03:46;;;;;;;;;;;20.30;34.40;;;;;;5069964;28;20093;-73
2021/05/03 13:09:06;;;;;;;;;;;20.40;34.00;;;;;;5103073;28;19927;-74
2021/05/03 13:11:57;;;;;;;;;;;20.30;33.70;;;;;;5062636;28;20465;-75
2021/05/03 13:28:58;;;;;;;;;;;20.30;32.90;;;;;;5086494;28;20449;-73
2021/05/03 13:31:24;;;;;;;;;;;20.50;32.90;;;;;;5088395;28;19924;-73
2021/05/03 13:33:53;;;;;;;;;;;20.50;32.70;;;;;;5087593;28;19946;-73
2021/05/03 13:36:19;;;;;;;;;;;20.50;32.70;;;;;;5091418;28;20327;-73
2021/05/03 13:38:48;;;;;;;;;;;20.50;32.70;;;;;;5081666;28;20064;-73
2021/05/03 13:41:14;;;;;;;;;;;20.50;32.70;;;;;;5089923;28;20384;-73
2021/05/03 13:43:40;;;;;;;;;;;20.70;32.70;;;;;;5084092;28;19927;-74
2021/05/03 13:46:06;;;;;;;;;;;20.60;33.10;;;;;;5090379;28;19920;-74
2021/05/03 13:48:32;;;;;;;;;;;20.60;34.00;;;;;;5086724;28;19920;-74
2021/05/03 13:50:59;;;;;;;;;;;20.60;33.30;;;;;;5082498;28;20372;-74
2021/05/03 13:53:25;;;;;;;;;;;20.50;32.70;;;;;;5087295;28;19948;-73
2021/05/03 13:55:54;;;;;;;;;;;20.50;32.90;;;;;;5084783;28;19920;-73
2021/05/03 13:58:23;;;;;;;;;;;20.30;32.80;;;;;;5086803;28;19920;-75
2021/05/03 14:00:49;;;;;;;;;;;20.30;32.60;;;;;;5085856;28;19919;-75
2021/05/03 14:03:15;;;;;;;;;;;20.40;32.70;;;;;;5070553;28;19923;-74
2021/05/03 14:05:52;;;;;;;;;;;20.40;32.50;;;;;;5086475;28;19928;-74
2021/05/03 14:08:18;;;;;;;;;;;20.60;32.50;;;;;;5076178;28;21468;-74
2021/05/03 14:10:47;;;;;;;;;;;20.50;32.30;;;;;;5081094;28;19959;-74
2021/05/03 14:13:14;;;;;;;;;;;20.50;32.60;;;;;;5083600;28;20148;-74
2021/05/03 14:15:40;;;;;;;;;;;20.60;32.50;;;;;;5074868;28;20145;-74
2021/05/03 14:18:09;;;;;;;;;;;20.50;32.30;;;;;;5083823;28;19924;-73
2021/05/03 14:20:36;;;;;;;;;;;20.50;32.20;;;;;;5075636;28;19920;-75
2021/05/03 14:23:02;;;;;;;;;;;20.60;32.30;;;;;;5072123;28;19920;-74
2021/05/03 14:25:31;;;;;;;;;;;20.60;32.20;;;;;;5090417;28;19924;-74
2021/05/03 14:28:00;;;;;;;;;;;20.70;31.90;;;;;;5085391;28;19924;-73
2021/05/03 14:30:37;;;;;;;;;;;20.70;32.10;;;;;;5086990;28;19942;-74
2021/05/03 14:33:16;;;;;;;;;;;20.80;32.00;;;;;;5083889;28;19927;-74
2021/05/03 14:35:43;;;;;;;;;;;21.00;32.90;;;;;;5087056;28;19920;-72
2021/05/03 14:38:09;;;;;;;;;;;21.00;32.50;;;;;;5086897;28;20383;-72
2021/05/03 14:40:36;;;;;;;;;;;20.80;32.90;;;;;;5085694;28;19920;-75
2021/05/03 14:43:06;;;;;;;;;;;20.70;32.40;;;;;;5086072;28;19927;-74
2021/05/03 14:45:36;;;;;;;;;;;20.80;33.90;;;;;;5086629;28;19934;-74
2021/05/03 14:55:38;;;;;;;;;;;20.40;32.40;;;;;;5086834;28;19928;-75
2021/05/03 14:58:04;;;;;;;;;;;20.10;32.50;;;;;;5075611;28;20254;-73
2021/05/03 15:00:31;;;;;;;;;;;20.20;32.30;;;;;;5060011;28;20375;-72
2021/05/03 15:02:57;;;;;;;;;;;20.20;32.30;;;;;;5083275;28;19978;-73
2021/05/03 15:05:24;;;;;;;;;;;20.30;31.90;;;;;;5067251;28;19931;-72
2021/05/03 15:07:52;;;;;;;;;;;20.30;32.10;;;;;;5091039;28;19970;-72
2021/05/03 15:10:20;;;;;;;;;;;20.30;31.50;;;;;;5083188;28;21981;-73
2021/05/03 15:12:55;;;;;;;;;;;20.30;31.50;;;;;;5087246;28;19931;-72
2021/05/03 15:18:08;;;;;;;;;;;20.70;33.70;;;;;;5068051;28;20673;-73
2021/05/03 15:23:30;;;;;;;;;;;21.20;33.70;;;;;;5036334;28;20285;-75
2021/05/03 15:26:00;;;;;;;;;;;21.50;31.40;;;;;;5085971;28;20376;-72
2021/05/03 15:28:50;;;;;;;;;;;21.50;33.80;;;;;;5086526;28;19920;-72
2021/05/03 15:34:02;;;;;;;;;;;21.40;34.10;;;;;;5085954;28;20482;-71
2021/05/03 15:36:28;;;;;;;;;;;21.30;32.30;;;;;;5087374;28;20384;-72
2021/05/03 15:38:54;;;;;;;;;;;21.20;31.00;;;;;;5084486;28;19950;-72
2021/05/03 15:41:20;;;;;;;;;;;21.10;31.80;;;;;;5087313;28;19942;-72
2021/05/03 15:43:49;;;;;;;;;;;20.90;32.30;;;;;;5064321;28;21126;-71
2021/05/03 15:46:15;;;;;;;;;;;20.40;32.60;;;;;;5086836;28;19931;-71
2021/05/03 15:48:42;;;;;;;;;;;20.40;33.70;;;;;;5083900;28;19994;-71
2021/05/03 15:51:10;;;;;;;;;;;20.50;33.90;;;;;;5085167;28;19928;-71
2021/05/03 15:53:36;;;;;;;;;;;20.90;32.20;;;;;;5083646;28;19920;-71
2021/05/03 15:56:03;;;;;;;;;;;21.10;33.50;;;;;;5082296;28;19932;-71